Time;durP1;ratioP1;P1;durP2;ratioP2;P2;SDS_P1;SDS_P2;PMS_P1;PMS_P2;Temp;Humidity;BMP_temperature;BMP_pressure;BME280_temperature;BME280_humidity;BME280_pressure;Samples;Min_cycle;Max_cycle;Signal;HPM_P1;HPM_P2
2023/07/17 00:01:36;;;;;;;;;2.00;2.00;;;;;;;;5035244;28;51123;-56
2023/07/17 00:04:01;;;;;;;;;2.67;2.00;;;;;;;;5035473;28;51129;-55
2023/07/17 00:06:27;;;;;;;;;3.00;2.00;;;;;;;;5032238;28;51060;-55
2023/07/17 00:08:52;;;;;;;;;3.00;2.67;;;;;;;;5032699;28;51039;-56
2023/07/17 00:11:17;;;;;;;;;4.33;3.00;;;;;;;;5032142;28;51103;-55
2023/07/17 00:13:42;;;;;;;;;2.00;2.00;;;;;;;;5021798;28;51302;-55
2023/07/17 00:16:07;;;;;;;;;3.33;3.33;;;;;;;;5033220;28;51088;-55
2023/07/17 00:18:34;;;;;;;;;2.33;2.00;;;;;;;;5033021;28;51686;-56
2023/07/17 00:21:00;;;;;;;;;3.67;3.00;;;;;;;;5030338;28;51349;-55
2023/07/17 00:23:25;;;;;;;;;4.00;4.00;;;;;;;;5031316;28;51235;-55
2023/07/17 00:25:50;;;;;;;;;8.33;8.33;;;;;;;;5031799;28;51306;-56
2023/07/17 00:28:15;;;;;;;;;1.00;1.00;;;;;;;;5021728;28;50945;-56
2023/07/17 00:30:42;;;;;;;;;3.00;3.00;;;;;;;;5031744;28;50860;-55
2023/07/17 00:33:08;;;;;;;;;4.00;4.00;;;;;;;;5032704;28;51099;-56
2023/07/17 00:35:34;;;;;;;;;4.00;4.00;;;;;;;;5030639;28;51058;-57
2023/07/17 00:37:59;;;;;;;;;4.00;4.00;;;;;;;;5032989;28;51665;-56
2023/07/17 00:40:24;;;;;;;;;4.00;4.00;;;;;;;;5033300;28;50919;-55
2023/07/17 00:42:49;;;;;;;;;4.00;3.00;;;;;;;;5031702;28;51129;-56
2023/07/17 00:45:15;;;;;;;;;4.00;3.00;;;;;;;;5026082;28;51168;-56
2023/07/17 00:47:40;;;;;;;;;3.00;2.00;;;;;;;;5033133;28;51805;-55
2023/07/17 00:50:06;;;;;;;;;4.00;4.00;;;;;;;;5032204;28;51215;-55
2023/07/17 00:52:31;;;;;;;;;4.00;4.00;;;;;;;;5032023;28;51051;-55
2023/07/17 00:54:57;;;;;;;;;3.00;3.00;;;;;;;;5028626;28;51114;-55
2023/07/17 00:57:22;;;;;;;;;2.33;2.33;;;;;;;;5024602;28;51571;-55
2023/07/17 00:59:48;;;;;;;;;5.33;4.00;;;;;;;;5029894;28;51164;-55
2023/07/17 01:02:13;;;;;;;;;4.00;4.00;;;;;;;;5029342;28;54740;-55
2023/07/17 01:04:43;;;;;;;;;4.00;3.00;;;;;;;;5031923;28;51220;-55
2023/07/17 01:07:09;;;;;;;;;3.67;3.67;;;;;;;;5030698;28;51060;-55
2023/07/17 01:09:35;;;;;;;;;3.00;2.67;;;;;;;;5031852;28;51097;-57
2023/07/17 01:12:00;;;;;;;;;2.33;2.33;;;;;;;;5031146;28;51056;-55
2023/07/17 01:14:25;;;;;;;;;3.00;3.00;;;;;;;;5032990;28;51121;-56
2023/07/17 01:16:51;;;;;;;;;4.00;4.00;;;;;;;;5031034;28;51177;-55
2023/07/17 01:19:16;;;;;;;;;2.33;2.00;;;;;;;;5023395;28;51174;-55
2023/07/17 01:21:50;;;;;;;;;3.00;3.00;;;;;;;;5031362;28;51459;-55
2023/07/17 01:24:15;;;;;;;;;2.00;2.00;;;;;;;;5032228;28;51053;-55
2023/07/17 01:26:41;;;;;;;;;3.00;3.00;;;;;;;;5028974;28;52222;-56
2023/07/17 01:29:06;;;;;;;;;3.00;2.00;;;;;;;;5032026;28;51029;-55
2023/07/17 01:31:31;;;;;;;;;2.67;2.00;;;;;;;;5030201;28;51486;-55
2023/07/17 01:33:56;;;;;;;;;2.33;2.00;;;;;;;;5031699;28;51006;-55
2023/07/17 01:36:21;;;;;;;;;1.67;1.67;;;;;;;;5028812;28;51836;-54
2023/07/17 01:38:47;;;;;;;;;2.67;2.67;;;;;;;;5031061;28;51105;-55
2023/07/17 01:41:12;;;;;;;;;3.00;2.33;;;;;;;;5031574;28;50995;-55
2023/07/17 01:43:37;;;;;;;;;4.67;3.67;;;;;;;;5031126;28;51274;-55
2023/07/17 01:46:02;;;;;;;;;3.00;2.00;;;;;;;;5031181;28;51999;-56
2023/07/17 01:48:28;;;;;;;;;2.00;2.00;;;;;;;;5030656;28;51032;-57
2023/07/17 01:50:53;;;;;;;;;2.67;2.33;;;;;;;;5019644;28;51084;-55
2023/07/17 01:53:19;;;;;;;;;3.33;3.00;;;;;;;;5031269;28;51157;-56
2023/07/17 01:55:44;;;;;;;;;2.00;1.33;;;;;;;;5033336;28;51018;-55
2023/07/17 01:58:09;;;;;;;;;2.00;1.67;;;;;;;;5028448;28;51230;-54
2023/07/17 02:00:35;;;;;;;;;3.00;2.33;;;;;;;;5035093;28;50975;-54
2023/07/17 02:03:00;;;;;;;;;4.00;3.00;;;;;;;;5035032;28;51134;-54
2023/07/17 02:05:25;;;;;;;;;2.00;2.00;;;;;;;;5034421;28;52073;-54
2023/07/17 02:07:50;;;;;;;;;2.00;2.00;;;;;;;;5019434;28;51286;-56
2023/07/17 02:10:16;;;;;;;;;3.00;3.00;;;;;;;;5035070;28;50958;-54
2023/07/17 02:12:41;;;;;;;;;2.00;2.00;;;;;;;;5033975;28;51208;-54
2023/07/17 02:15:06;;;;;;;;;3.33;2.67;;;;;;;;5034136;28;51730;-55
2023/07/17 02:17:32;;;;;;;;;2.67;2.00;;;;;;;;5035568;28;51238;-56
2023/07/17 02:19:57;;;;;;;;;2.67;1.33;;;;;;;;5033654;28;51061;-56
2023/07/17 02:22:23;;;;;;;;;2.33;2.00;;;;;;;;5028918;28;51296;-55
2023/07/17 02:24:48;;;;;;;;;2.67;2.67;;;;;;;;5034269;28;52128;-55
2023/07/17 02:27:13;;;;;;;;;2.67;2.00;;;;;;;;5034496;28;51059;-54
2023/07/17 02:29:38;;;;;;;;;2.00;2.00;;;;;;;;5033885;28;51255;-56
2023/07/17 02:32:04;;;;;;;;;2.00;2.00;;;;;;;;5034256;28;51017;-55
2023/07/17 02:34:29;;;;;;;;;2.00;2.00;;;;;;;;5033356;28;51952;-55
2023/07/17 02:36:54;;;;;;;;;2.00;2.00;;;;;;;;5033279;28;51114;-56
2023/07/17 02:39:20;;;;;;;;;3.00;3.00;;;;;;;;5032232;28;51037;-55
2023/07/17 02:41:46;;;;;;;;;5.00;3.00;;;;;;;;5031251;28;51191;-55
2023/07/17 02:44:11;;;;;;;;;2.33;2.00;;;;;;;;5034231;28;51748;-55
2023/07/17 02:46:36;;;;;;;;;2.00;2.00;;;;;;;;5032742;28;51052;-55
2023/07/17 02:49:01;;;;;;;;;3.00;2.00;;;;;;;;5032849;28;51360;-55
2023/07/17 02:51:26;;;;;;;;;3.00;3.00;;;;;;;;5034452;28;51149;-55
2023/07/17 02:53:52;;;;;;;;;4.00;4.00;;;;;;;;5033724;28;51106;-55
2023/07/17 02:56:17;;;;;;;;;3.00;2.00;;;;;;;;5027037;28;51125;-55
2023/07/17 02:58:43;;;;;;;;;3.00;3.00;;;;;;;;5023356;28;51051;-55
2023/07/17 03:01:09;;;;;;;;;3.00;3.00;;;;;;;;5034483;28;51390;-56
2023/07/17 03:03:34;;;;;;;;;3.00;3.00;;;;;;;;5034020;28;52636;-56
2023/07/17 03:05:59;;;;;;;;;2.67;2.00;;;;;;;;5032358;28;51030;-56
2023/07/17 03:08:25;;;;;;;;;2.00;2.00;;;;;;;;5027396;28;51309;-54
2023/07/17 03:10:50;;;;;;;;;2.00;2.00;;;;;;;;5033305;28;51117;-56
2023/07/17 03:13:16;;;;;;;;;2.67;2.67;;;;;;;;5033351;28;51322;-55
2023/07/17 03:15:41;;;;;;;;;3.00;3.00;;;;;;;;5030345;28;50939;-54
2023/07/17 03:18:06;;;;;;;;;2.67;2.67;;;;;;;;5033601;28;51118;-54
2023/07/17 03:20:33;;;;;;;;;4.00;3.00;;;;;;;;5033835;28;51300;-53
2023/07/17 03:22:59;;;;;;;;;2.00;2.00;;;;;;;;5033157;28;51917;-55
2023/07/17 03:25:24;;;;;;;;;2.33;2.00;;;;;;;;5033871;28;51067;-55
2023/07/17 03:27:49;;;;;;;;;2.00;2.00;;;;;;;;5034171;28;51054;-53
2023/07/17 03:30:14;;;;;;;;;3.67;3.67;;;;;;;;5031944;28;51027;-55
2023/07/17 03:32:39;;;;;;;;;3.33;2.00;;;;;;;;5030082;28;52778;-55
2023/07/17 03:35:05;;;;;;;;;1.67;1.67;;;;;;;;5032191;28;51288;-55
2023/07/17 03:37:30;;;;;;;;;3.00;2.33;;;;;;;;5031596;28;51364;-55
2023/07/17 03:39:55;;;;;;;;;3.00;2.33;;;;;;;;5031967;28;50922;-55
2023/07/17 03:42:21;;;;;;;;;2.00;2.00;;;;;;;;5033105;28;51461;-54
2023/07/17 03:44:46;;;;;;;;;2.33;2.33;;;;;;;;5033471;28;50966;-54
2023/07/17 03:47:11;;;;;;;;;2.00;2.00;;;;;;;;5023041;28;51297;-55
2023/07/17 03:49:36;;;;;;;;;2.33;2.33;;;;;;;;5028645;28;51229;-54
2023/07/17 03:52:02;;;;;;;;;2.00;2.00;;;;;;;;5033766;28;51288;-55
2023/07/17 03:54:27;;;;;;;;;4.00;2.00;;;;;;;;5033312;28;51111;-54
2023/07/17 03:56:52;;;;;;;;;1.33;1.33;;;;;;;;5032713;28;51128;-55
2023/07/17 03:59:22;;;;;;;;;1.67;1.67;;;;;;;;5032751;28;51116;-54
2023/07/17 04:01:47;;;;;;;;;3.67;3.67;;;;;;;;5029516;28;54349;-55
2023/07/17 04:04:12;;;;;;;;;2.67;2.67;;;;;;;;5023342;28;50921;-55
2023/07/17 04:06:38;;;;;;;;;3.00;2.00;;;;;;;;5032591;28;50956;-56
2023/07/17 04:09:04;;;;;;;;;2.00;2.00;;;;;;;;5031824;28;51138;-54
2023/07/17 04:11:29;;;;;;;;;2.33;2.33;;;;;;;;5031622;28;52657;-53
2023/07/17 04:13:54;;;;;;;;;2.00;2.00;;;;;;;;5032291;28;51645;-55
2023/07/17 04:16:20;;;;;;;;;0.33;0.33;;;;;;;;5032908;28;50950;-56
2023/07/17 04:18:46;;;;;;;;;1.67;1.67;;;;;;;;5016787;28;51022;-55
2023/07/17 04:21:11;;;;;;;;;2.67;2.33;;;;;;;;5031127;28;51197;-55
2023/07/17 04:23:36;;;;;;;;;1.00;1.00;;;;;;;;5032823;28;51065;-55
2023/07/17 04:26:01;;;;;;;;;1.67;1.67;;;;;;;;5032987;28;51196;-55
2023/07/17 04:28:26;;;;;;;;;1.67;1.33;;;;;;;;5032087;28;51298;-55
2023/07/17 04:30:52;;;;;;;;;0.67;0.67;;;;;;;;5030826;28;51160;-55
2023/07/17 04:33:17;;;;;;;;;2.00;1.67;;;;;;;;5029575;28;51376;-55
2023/07/17 04:35:42;;;;;;;;;2.00;1.00;;;;;;;;5022316;28;51067;-55
2023/07/17 04:38:07;;;;;;;;;1.00;1.00;;;;;;;;5028132;28;51165;-56
2023/07/17 04:40:32;;;;;;;;;1.00;1.00;;;;;;;;5030388;28;51624;-56
2023/07/17 04:42:59;;;;;;;;;0.33;0.33;;;;;;;;5031793;28;51097;-56
2023/07/17 04:45:24;;;;;;;;;1.00;1.00;;;;;;;;5032631;28;50938;-56
2023/07/17 04:47:49;;;;;;;;;2.00;2.00;;;;;;;;5032620;28;51172;-55
2023/07/17 04:50:14;;;;;;;;;1.67;1.33;;;;;;;;5030589;28;51978;-57
2023/07/17 04:52:39;;;;;;;;;2.00;1.33;;;;;;;;5030199;28;51170;-54
2023/07/17 04:55:05;;;;;;;;;1.00;1.00;;;;;;;;5031497;28;51016;-56
2023/07/17 04:57:30;;;;;;;;;0.67;0.67;;;;;;;;5024698;28;51394;-56
2023/07/17 04:59:55;;;;;;;;;2.00;2.00;;;;;;;;5028498;28;51951;-55
2023/07/17 05:02:20;;;;;;;;;1.00;1.00;;;;;;;;5031916;28;51510;-54
2023/07/17 05:04:46;;;;;;;;;1.67;0.67;;;;;;;;5033014;28;51354;-54
2023/07/17 05:07:11;;;;;;;;;1.00;1.00;;;;;;;;5032915;28;50848;-55
2023/07/17 05:09:36;;;;;;;;;1.33;1.00;;;;;;;;5024150;28;51954;-58
2023/07/17 05:12:01;;;;;;;;;2.00;1.00;;;;;;;;5032292;28;50939;-55
2023/07/17 05:14:27;;;;;;;;;1.00;1.00;;;;;;;;5033248;28;51051;-57
2023/07/17 05:16:52;;;;;;;;;5.00;1.33;;;;;;;;5033075;28;50910;-56
2023/07/17 05:19:17;;;;;;;;;2.00;1.00;;;;;;;;5030817;28;51887;-56
2023/07/17 05:21:42;;;;;;;;;1.67;1.67;;;;;;;;5032196;28;50883;-57
2023/07/17 05:24:07;;;;;;;;;2.33;2.00;;;;;;;;5033027;28;50897;-55
2023/07/17 05:26:33;;;;;;;;;1.33;1.33;;;;;;;;5022388;28;51269;-55
2023/07/17 05:28:58;;;;;;;;;2.00;1.00;;;;;;;;5028231;28;51934;-55
2023/07/17 05:31:23;;;;;;;;;1.00;1.00;;;;;;;;5033078;28;50891;-54
2023/07/17 05:33:48;;;;;;;;;2.33;1.67;;;;;;;;5025711;28;51275;-54
2023/07/17 05:36:13;;;;;;;;;2.67;2.00;;;;;;;;5032502;28;51057;-56
2023/07/17 05:38:39;;;;;;;;;1.00;1.00;;;;;;;;5022713;28;51905;-56
2023/07/17 05:41:04;;;;;;;;;2.67;2.00;;;;;;;;5030799;28;51065;-56
2023/07/17 05:43:30;;;;;;;;;7.00;7.00;;;;;;;;5027716;28;51244;-56
2023/07/17 05:45:56;;;;;;;;;2.33;2.00;;;;;;;;5024013;28;51198;-56
2023/07/17 05:48:21;;;;;;;;;1.00;1.00;;;;;;;;5032177;28;51145;-56
2023/07/17 05:50:46;;;;;;;;;0.33;0.00;;;;;;;;5032050;28;51003;-56
2023/07/17 05:53:11;;;;;;;;;0.33;0.00;;;;;;;;5032664;28;51092;-56
2023/07/17 05:55:37;;;;;;;;;1.00;1.00;;;;;;;;5032667;28;51113;-56
2023/07/17 05:58:02;;;;;;;;;1.00;1.00;;;;;;;;5031892;28;53015;-56
2023/07/17 06:00:27;;;;;;;;;0.33;0.33;;;;;;;;5021745;28;51139;-56
2023/07/17 06:02:52;;;;;;;;;1.67;1.00;;;;;;;;5020693;28;51221;-56
2023/07/17 06:05:17;;;;;;;;;0.67;0.33;;;;;;;;5026840;28;51090;-55
2023/07/17 06:07:43;;;;;;;;;1.00;1.00;;;;;;;;5025571;28;51393;-56
2023/07/17 06:10:08;;;;;;;;;1.33;1.33;;;;;;;;5027875;28;51064;-55
2023/07/17 06:12:33;;;;;;;;;1.00;0.00;;;;;;;;5028931;28;51084;-56
2023/07/17 06:14:59;;;;;;;;;0.33;0.33;;;;;;;;5031474;28;51078;-56
2023/07/17 06:17:24;;;;;;;;;1.00;1.00;;;;;;;;5019605;28;51712;-56
2023/07/17 06:19:49;;;;;;;;;0.33;0.33;;;;;;;;5029264;28;51100;-54
2023/07/17 06:22:15;;;;;;;;;0.33;0.33;;;;;;;;5032152;28;51093;-55
2023/07/17 06:24:40;;;;;;;;;1.00;1.00;;;;;;;;5028972;28;51256;-55
2023/07/17 06:27:05;;;;;;;;;2.33;1.67;;;;;;;;5031121;28;51779;-55
2023/07/17 06:29:31;;;;;;;;;1.00;1.00;;;;;;;;5031819;28;50953;-56
2023/07/17 06:31:56;;;;;;;;;3.00;3.00;;;;;;;;5020851;28;51007;-56
2023/07/17 06:34:21;;;;;;;;;1.00;1.00;;;;;;;;5028107;28;51286;-57
2023/07/17 06:36:48;;;;;;;;;2.67;2.67;;;;;;;;5031325;28;51893;-55
2023/07/17 06:39:13;;;;;;;;;1.67;1.67;;;;;;;;5031449;28;50825;-56
2023/07/17 06:41:38;;;;;;;;;8.00;6.67;;;;;;;;5033590;28;50960;-56
2023/07/17 06:44:03;;;;;;;;;2.00;1.33;;;;;;;;5035090;28;51300;-57
2023/07/17 06:46:29;;;;;;;;;1.00;1.00;;;;;;;;5033565;28;50995;-55
2023/07/17 06:48:54;;;;;;;;;1.33;1.00;;;;;;;;5021343;28;51196;-55
2023/07/17 06:51:19;;;;;;;;;0.33;0.33;;;;;;;;5034455;28;51184;-56
2023/07/17 06:53:44;;;;;;;;;1.00;0.67;;;;;;;;5034643;28;50852;-56
2023/07/17 06:56:09;;;;;;;;;0.67;0.67;;;;;;;;5033399;28;52256;-56
2023/07/17 06:58:35;;;;;;;;;1.67;1.00;;;;;;;;5034483;28;50985;-56
2023/07/17 07:01:00;;;;;;;;;0.33;0.33;;;;;;;;5034866;28;50859;-55
2023/07/17 07:03:27;;;;;;;;;8.00;5.33;;;;;;;;5020111;28;51400;-57
2023/07/17 07:05:56;;;;;;;;;1.67;1.00;;;;;;;;5033930;28;51723;-55
2023/07/17 07:08:22;;;;;;;;;0.33;0.00;;;;;;;;5028683;28;51025;-56
2023/07/17 07:10:49;;;;;;;;;2.00;1.00;;;;;;;;5034794;28;51042;-56
2023/07/17 07:13:14;;;;;;;;;1.00;1.00;;;;;;;;5034726;28;51097;-55
2023/07/17 07:15:40;;;;;;;;;2.00;1.00;;;;;;;;5034509;28;51907;-57
2023/07/17 07:18:05;;;;;;;;;1.33;0.67;;;;;;;;5031952;28;51145;-56
2023/07/17 07:20:30;;;;;;;;;3.33;3.00;;;;;;;;5028158;28;51027;-57
2023/07/17 07:22:55;;;;;;;;;1.67;1.67;;;;;;;;5034692;28;51296;-56
2023/07/17 07:25:21;;;;;;;;;1.33;1.00;;;;;;;;5034057;28;52023;-56
2023/07/17 07:27:46;;;;;;;;;2.67;2.67;;;;;;;;5034455;28;51076;-56
2023/07/17 07:30:11;;;;;;;;;1.33;1.00;;;;;;;;5034187;28;51111;-55
2023/07/17 07:32:39;;;;;;;;;3.00;2.00;;;;;;;;5034440;28;51027;-56
2023/07/17 07:35:04;;;;;;;;;2.67;2.00;;;;;;;;5032829;28;54037;-56
2023/07/17 07:37:30;;;;;;;;;0.00;0.00;;;;;;;;5020366;28;51118;-56
2023/07/17 07:39:55;;;;;;;;;1.33;0.67;;;;;;;;5034426;28;51029;-55
2023/07/17 07:42:20;;;;;;;;;0.00;0.00;;;;;;;;5034251;28;51149;-57
2023/07/17 07:44:46;;;;;;;;;1.33;1.33;;;;;;;;5033995;28;52072;-55
2023/07/17 07:47:11;;;;;;;;;2.00;2.00;;;;;;;;5033910;28;50989;-56
2023/07/17 07:49:36;;;;;;;;;2.00;2.00;;;;;;;;5033671;28;50832;-55
2023/07/17 07:52:02;;;;;;;;;3.00;3.00;;;;;;;;5025240;28;51062;-57
2023/07/17 07:54:27;;;;;;;;;3.00;2.67;;;;;;;;5029082;28;50979;-57
2023/07/17 07:56:52;;;;;;;;;1.33;1.33;;;;;;;;5034336;28;50934;-55
2023/07/17 07:59:17;;;;;;;;;1.33;1.00;;;;;;;;5033742;28;51060;-58
2023/07/17 08:01:42;;;;;;;;;1.67;1.67;;;;;;;;5033678;28;51142;-56
2023/07/17 08:04:07;;;;;;;;;1.00;1.00;;;;;;;;5033242;28;51109;-57
2023/07/17 08:06:33;;;;;;;;;0.00;0.00;;;;;;;;5033334;28;51078;-57
2023/07/17 08:08:58;;;;;;;;;0.33;0.33;;;;;;;;5023778;28;50821;-57
2023/07/17 08:11:23;;;;;;;;;1.00;0.00;;;;;;;;5024620;28;50928;-56
2023/07/17 08:13:49;;;;;;;;;3.00;2.00;;;;;;;;5021000;28;51621;-56
2023/07/17 08:16:14;;;;;;;;;2.33;2.33;;;;;;;;5032475;28;51129;-55
2023/07/17 08:18:39;;;;;;;;;2.00;2.00;;;;;;;;5033574;28;50940;-57
2023/07/17 08:21:04;;;;;;;;;2.00;1.00;;;;;;;;5033372;28;51310;-56
2023/07/17 08:23:30;;;;;;;;;1.33;1.33;;;;;;;;5033150;28;50996;-56
2023/07/17 08:25:55;;;;;;;;;2.00;2.00;;;;;;;;5033629;28;51493;-56
2023/07/17 08:28:21;;;;;;;;;4.00;3.00;;;;;;;;5018817;28;51169;-57
2023/07/17 08:30:46;;;;;;;;;3.00;2.00;;;;;;;;5033971;28;51202;-56
2023/07/17 08:33:11;;;;;;;;;1.00;1.00;;;;;;;;5033029;28;51044;-56
2023/07/17 08:35:36;;;;;;;;;2.00;2.00;;;;;;;;5032048;28;51080;-57
2023/07/17 08:38:02;;;;;;;;;2.00;2.00;;;;;;;;5033423;28;51134;-56
2023/07/17 08:40:27;;;;;;;;;2.00;0.00;;;;;;;;5033656;28;51057;-56
2023/07/17 08:42:52;;;;;;;;;2.67;2.67;;;;;;;;5032692;28;51039;-56
2023/07/17 08:45:22;;;;;;;;;0.67;0.00;;;;;;;;5018781;28;51221;-56
2023/07/17 08:47:48;;;;;;;;;1.00;1.00;;;;;;;;5033114;28;51006;-56
2023/07/17 08:50:15;;;;;;;;;0.67;0.00;;;;;;;;5031710;28;51439;-57
2023/07/17 08:52:40;;;;;;;;;2.00;2.00;;;;;;;;5032798;28;53795;-56
2023/07/17 08:55:06;;;;;;;;;1.00;1.00;;;;;;;;5024790;28;51232;-56
2023/07/17 08:57:32;;;;;;;;;2.00;1.67;;;;;;;;5033533;28;51400;-56
2023/07/17 08:59:57;;;;;;;;;2.00;2.00;;;;;;;;5027863;28;51321;-55
2023/07/17 09:02:23;;;;;;;;;0.33;0.33;;;;;;;;5023920;28;52065;-56
2023/07/17 09:04:48;;;;;;;;;1.00;1.00;;;;;;;;5031717;28;51195;-56
2023/07/17 09:07:13;;;;;;;;;1.00;0.00;;;;;;;;5033084;28;51042;-56
2023/07/17 09:09:38;;;;;;;;;1.00;1.00;;;;;;;;5022233;28;51300;-56
2023/07/17 09:12:08;;;;;;;;;2.00;1.67;;;;;;;;5032760;28;51842;-56
2023/07/17 09:14:33;;;;;;;;;2.00;2.00;;;;;;;;5032855;28;51174;-55
2023/07/17 09:17:04;;;;;;;;;4.33;4.33;;;;;;;;5031597;28;51027;-56
2023/07/17 09:19:32;;;;;;;;;3.67;3.67;;;;;;;;5030241;28;51378;-56
2023/07/17 09:21:58;;;;;;;;;1.00;1.00;;;;;;;;5032266;28;51068;-56
2023/07/17 09:24:25;;;;;;;;;2.00;2.00;;;;;;;;5031607;28;50877;-56
2023/07/17 09:26:54;;;;;;;;;2.33;1.33;;;;;;;;5032343;28;50943;-58
2023/07/17 09:29:21;;;;;;;;;0.67;0.67;;;;;;;;5032704;28;51122;-55
2023/07/17 09:31:46;;;;;;;;;1.00;1.00;;;;;;;;5031188;28;53143;-57
2023/07/17 09:34:13;;;;;;;;;1.00;1.00;;;;;;;;5019483;28;51130;-56
2023/07/17 09:36:38;;;;;;;;;3.33;2.00;;;;;;;;5032132;28;50998;-57
2023/07/17 09:39:05;;;;;;;;;1.67;1.00;;;;;;;;5032564;28;50907;-55
2023/07/17 09:41:30;;;;;;;;;2.67;2.67;;;;;;;;5031900;28;52394;-56
2023/07/17 09:43:56;;;;;;;;;2.33;2.00;;;;;;;;5032525;28;50891;-55
2023/07/17 09:46:21;;;;;;;;;1.00;1.00;;;;;;;;5032264;28;50955;-57
2023/07/17 09:48:48;;;;;;;;;1.00;0.00;;;;;;;;5032620;28;51313;-56
2023/07/17 09:51:13;;;;;;;;;1.00;0.00;;;;;;;;5018144;28;51133;-56
2023/07/17 09:53:39;;;;;;;;;1.00;1.00;;;;;;;;5031894;28;51053;-56
2023/07/17 09:56:06;;;;;;;;;1.00;1.00;;;;;;;;5030457;28;52035;-56
2023/07/17 09:58:32;;;;;;;;;1.67;0.00;;;;;;;;5031139;28;51347;-57
2023/07/17 10:00:58;;;;;;;;;0.00;0.00;;;;;;;;5031630;28;52082;-56
2023/07/17 10:03:23;;;;;;;;;2.00;1.00;;;;;;;;5032080;28;50987;-56
2023/07/17 10:05:50;;;;;;;;;1.00;1.00;;;;;;;;5031619;28;51107;-56
2023/07/17 10:08:15;;;;;;;;;0.00;0.00;;;;;;;;5030874;28;50921;-56
2023/07/17 10:10:41;;;;;;;;;0.00;0.00;;;;;;;;5031538;28;52022;-57
2023/07/17 10:13:07;;;;;;;;;0.00;0.00;;;;;;;;5025391;28;51092;-55
2023/07/17 10:15:33;;;;;;;;;9.00;9.00;;;;;;;;5029332;28;52309;-57
2023/07/17 10:17:58;;;;;;;;;1.00;1.00;;;;;;;;5035262;28;51177;-56
2023/07/17 10:20:24;;;;;;;;;1.00;0.67;;;;;;;;5034209;28;52167;-57
2023/07/17 10:22:49;;;;;;;;;0.67;0.67;;;;;;;;5035357;28;51070;-57
2023/07/17 10:25:18;;;;;;;;;0.67;0.67;;;;;;;;5024240;28;50890;-57
2023/07/17 10:27:55;;;;;;;;;0.67;0.00;;;;;;;;5033060;28;50850;-57
2023/07/17 10:30:21;;;;;;;;;0.67;0.67;;;;;;;;5033501;28;53919;-56
2023/07/17 10:32:46;;;;;;;;;1.67;1.33;;;;;;;;5033644;28;51023;-56
2023/07/17 10:35:20;;;;;;;;;1.00;1.00;;;;;;;;5035116;28;50964;-56
2023/07/17 10:37:46;;;;;;;;;2.00;2.00;;;;;;;;5035345;28;50895;-56
2023/07/17 10:40:29;;;;;;;;;1.00;1.00;;;;;;;;5033018;28;51683;-55
2023/07/17 10:42:55;;;;;;;;;0.67;0.67;;;;;;;;5025571;28;50923;-59
2023/07/17 10:45:20;;;;;;;;;1.00;1.00;;;;;;;;5034993;28;51082;-57
2023/07/17 10:47:49;;;;;;;;;1.67;1.00;;;;;;;;5035399;28;50888;-56
2023/07/17 10:50:15;;;;;;;;;1.00;1.00;;;;;;;;5034379;28;51692;-55
2023/07/17 10:52:41;;;;;;;;;2.33;1.00;;;;;;;;5034515;28;50973;-56
2023/07/17 10:55:06;;;;;;;;;0.00;0.00;;;;;;;;5034742;28;51078;-57
2023/07/17 10:57:32;;;;;;;;;2.00;1.67;;;;;;;;5020983;28;51090;-56
2023/07/17 10:59:58;;;;;;;;;0.33;0.33;;;;;;;;5034445;28;51835;-57
2023/07/17 11:02:25;;;;;;;;;1.33;1.00;;;;;;;;5034140;28;50863;-56
2023/07/17 11:04:58;;;;;;;;;0.00;0.00;;;;;;;;5034144;28;50977;-57
2023/07/17 11:07:23;;;;;;;;;3.67;3.00;;;;;;;;5034415;28;50926;-56
2023/07/17 11:09:48;;;;;;;;;1.00;0.33;;;;;;;;5029331;28;51826;-55
2023/07/17 11:12:14;;;;;;;;;0.33;0.33;;;;;;;;5034183;28;50933;-57
2023/07/17 11:14:41;;;;;;;;;0.67;0.67;;;;;;;;5020650;28;51137;-61
2023/07/17 11:17:08;;;;;;;;;1.00;1.00;;;;;;;;5033462;28;51276;-56
2023/07/17 11:19:34;;;;;;;;;1.33;1.33;;;;;;;;5033137;28;51727;-55
2023/07/17 11:21:59;;;;;;;;;1.00;1.00;;;;;;;;5034367;28;51104;-56
2023/07/17 11:24:24;;;;;;;;;1.00;1.00;;;;;;;;5032940;28;50892;-56
2023/07/17 11:26:50;;;;;;;;;2.00;1.00;;;;;;;;5033430;28;51223;-56
2023/07/17 11:29:15;;;;;;;;;2.00;2.00;;;;;;;;5033803;28;51812;-57
2023/07/17 11:31:40;;;;;;;;;2.33;1.33;;;;;;;;5020393;28;50938;-56
2023/07/17 11:34:07;;;;;;;;;3.00;3.00;;;;;;;;5022494;28;50934;-56
2023/07/17 11:36:39;;;;;;;;;2.67;2.00;;;;;;;;5031584;28;51350;-56
2023/07/17 11:39:10;;;;;;;;;4.33;2.00;;;;;;;;5033646;28;52979;-57
2023/07/17 11:41:45;;;;;;;;;2.33;1.00;;;;;;;;5033712;28;51013;-56
2023/07/17 11:44:11;;;;;;;;;1.00;1.00;;;;;;;;5029843;28;50931;-56
2023/07/17 11:46:36;;;;;;;;;2.00;1.67;;;;;;;;5033485;28;50839;-57
2023/07/17 11:49:01;;;;;;;;;0.00;0.00;;;;;;;;5033481;28;51952;-56
2023/07/17 11:51:26;;;;;;;;;1.00;1.00;;;;;;;;5033444;28;51145;-57
2023/07/17 11:53:52;;;;;;;;;1.00;1.00;;;;;;;;5033455;28;51279;-58
2023/07/17 11:56:20;;;;;;;;;2.00;2.00;;;;;;;;5033787;28;51021;-56
2023/07/17 11:58:50;;;;;;;;;2.00;2.00;;;;;;;;5033081;28;51694;-57
2023/07/17 12:01:15;;;;;;;;;0.00;0.00;;;;;;;;5032105;28;51143;-56
2023/07/17 12:03:40;;;;;;;;;0.00;0.00;;;;;;;;5026647;28;51118;-55
2023/07/17 12:06:05;;;;;;;;;1.00;1.00;;;;;;;;5026171;28;51357;-55
2023/07/17 12:08:30;;;;;;;;;1.00;1.00;;;;;;;;5033106;28;51822;-56
2023/07/17 12:10:56;;;;;;;;;1.33;1.33;;;;;;;;5033561;28;50891;-56
2023/07/17 12:13:21;;;;;;;;;2.67;1.67;;;;;;;;5032169;28;51358;-56
2023/07/17 12:15:46;;;;;;;;;0.33;0.33;;;;;;;;5027533;28;51420;-54
2023/07/17 12:18:11;;;;;;;;;2.00;2.00;;;;;;;;5032646;28;51040;-56
2023/07/17 12:20:37;;;;;;;;;2.00;2.00;;;;;;;;5030472;28;51072;-56
2023/07/17 12:23:03;;;;;;;;;2.33;1.67;;;;;;;;5033024;28;51058;-56
2023/07/17 12:25:28;;;;;;;;;2.33;1.33;;;;;;;;5033235;28;51152;-54
2023/07/17 12:27:57;;;;;;;;;1.00;1.00;;;;;;;;5032885;28;51014;-55
2023/07/17 12:30:22;;;;;;;;;0.33;0.33;;;;;;;;5033317;28;51000;-56
2023/07/17 12:32:47;;;;;;;;;1.00;1.00;;;;;;;;5032899;28;51180;-56
2023/07/17 12:35:13;;;;;;;;;1.00;1.00;;;;;;;;5033195;28;51091;-55
2023/07/17 12:37:39;;;;;;;;;1.00;1.00;;;;;;;;5017865;28;52218;-55
2023/07/17 12:40:05;;;;;;;;;1.00;1.00;;;;;;;;5032094;28;50864;-55
2023/07/17 12:42:30;;;;;;;;;1.00;1.00;;;;;;;;5031137;28;51109;-56
2023/07/17 12:44:55;;;;;;;;;1.00;1.00;;;;;;;;5033229;28;50877;-55
2023/07/17 12:47:21;;;;;;;;;2.00;2.00;;;;;;;;5032439;28;52585;-55
2023/07/17 12:49:47;;;;;;;;;1.00;0.00;;;;;;;;5032829;28;50904;-57
2023/07/17 12:52:12;;;;;;;;;0.33;0.33;;;;;;;;5032923;28;51044;-55
2023/07/17 12:54:37;;;;;;;;;1.33;1.00;;;;;;;;5022509;28;51336;-55
2023/07/17 12:57:03;;;;;;;;;3.00;2.67;;;;;;;;5029976;28;51910;-56
2023/07/17 12:59:28;;;;;;;;;1.00;1.00;;;;;;;;5032959;28;50962;-54
2023/07/17 13:01:54;;;;;;;;;1.00;1.00;;;;;;;;5032820;28;51196;-58
2023/07/17 13:04:19;;;;;;;;;1.33;1.00;;;;;;;;5032513;28;51012;-55
2023/07/17 13:06:45;;;;;;;;;0.00;0.00;;;;;;;;5031983;28;51920;-56
2023/07/17 13:09:10;;;;;;;;;1.00;1.00;;;;;;;;5032447;28;50986;-55
2023/07/17 13:11:36;;;;;;;;;2.00;1.00;;;;;;;;5031567;28;51236;-56
2023/07/17 13:14:01;;;;;;;;;59.75;49.00;;;;;;;;5032792;28;51082;-55
2023/07/17 13:16:27;;;;;;;;;13.00;12.25;;;;;;;;5032013;28;51595;-55
2023/07/17 13:18:52;;;;;;;;;0.33;0.00;;;;;;;;5031256;28;51107;-55
2023/07/17 13:21:17;;;;;;;;;0.00;0.00;;;;;;;;5031789;28;51083;-56
2023/07/17 13:23:42;;;;;;;;;1.00;0.00;;;;;;;;5032568;28;51141;-56
2023/07/17 13:26:08;;;;;;;;;0.67;0.00;;;;;;;;5031865;28;51806;-54
2023/07/17 13:28:34;;;;;;;;;2.00;0.33;;;;;;;;5020475;28;50942;-56
2023/07/17 13:31:00;;;;;;;;;0.33;0.33;;;;;;;;5029163;28;50980;-57
2023/07/17 13:33:25;;;;;;;;;1.00;1.00;;;;;;;;5031273;28;50942;-54
2023/07/17 13:35:50;;;;;;;;;0.67;0.67;;;;;;;;5031568;28;52016;-67
2023/07/17 13:38:16;;;;;;;;;1.00;1.00;;;;;;;;5032388;28;50986;-66
2023/07/17 13:40:41;;;;;;;;;1.00;1.00;;;;;;;;5031710;28;51167;-66
2023/07/17 13:43:07;;;;;;;;;0.00;0.00;;;;;;;;5032399;28;50913;-65
2023/07/17 13:45:32;;;;;;;;;1.67;1.67;;;;;;;;5025257;28;51993;-66
2023/07/17 13:47:57;;;;;;;;;2.00;1.00;;;;;;;;5021661;28;50938;-65
2023/07/17 13:50:22;;;;;;;;;1.00;1.00;;;;;;;;5025547;28;51442;-66
2023/07/17 13:52:48;;;;;;;;;1.00;1.00;;;;;;;;5035141;28;51212;-66
2023/07/17 13:55:13;;;;;;;;;2.00;2.00;;;;;;;;5027480;28;52211;-67
2023/07/17 13:57:38;;;;;;;;;1.33;1.33;;;;;;;;5035101;28;51101;-66
2023/07/17 14:00:06;;;;;;;;;0.33;0.33;;;;;;;;5035196;28;50982;-67
2023/07/17 14:02:32;;;;;;;;;0.33;0.33;;;;;;;;5035488;28;51027;-66
2023/07/17 14:04:57;;;;;;;;;4.00;2.33;;;;;;;;5034328;28;51887;-66
2023/07/17 14:07:22;;;;;;;;;5.00;4.00;;;;;;;;5034639;28;51042;-69
2023/07/17 14:09:47;;;;;;;;;0.00;0.00;;;;;;;;5033685;28;51109;-67
2023/07/17 14:12:13;;;;;;;;;0.33;0.33;;;;;;;;5035208;28;51205;-67
2023/07/17 14:14:38;;;;;;;;;1.33;1.33;;;;;;;;5031190;28;52077;-65
2023/07/17 14:17:03;;;;;;;;;0.00;0.00;;;;;;;;5029486;28;51023;-67
2023/07/17 14:19:28;;;;;;;;;0.33;0.33;;;;;;;;5032589;28;50985;-66
2023/07/17 14:21:54;;;;;;;;;1.00;0.33;;;;;;;;5034717;28;50848;-67
2023/07/17 14:24:19;;;;;;;;;1.67;1.67;;;;;;;;5034529;28;51671;-65
2023/07/17 14:26:44;;;;;;;;;0.33;0.33;;;;;;;;5034270;28;51180;-66
2023/07/17 14:29:09;;;;;;;;;1.00;1.00;;;;;;;;5034808;28;50927;-67
2023/07/17 14:31:35;;;;;;;;;2.00;1.33;;;;;;;;5016872;28;52073;-67
2023/07/17 14:34:00;;;;;;;;;0.33;0.33;;;;;;;;5020628;28;51808;-67